sensor_id;sensor_type;location;lat;lon;timestamp;temperature;humidity
65472;DHT22;52068;50.710;14.492;2023-12-04T00:01:28;27.91;30.58
65472;DHT22;52068;50.710;14.492;2023-12-04T00:03:53;28.09;30.17
65472;DHT22;52068;50.710;14.492;2023-12-04T00:06:19;28.39;29.99
65472;DHT22;52068;50.710;14.492;2023-12-04T00:08:44;28.79;29.43
65472;DHT22;52068;50.710;14.492;2023-12-04T00:11:10;29.13;28.87
65472;DHT22;52068;50.710;14.492;2023-12-04T00:13:35;29.51;28.29
65472;DHT22;52068;50.710;14.492;2023-12-04T00:16:01;29.88;27.91
65472;DHT22;52068;50.710;14.492;2023-12-04T00:18:26;30.17;27.46
65472;DHT22;52068;50.710;14.492;2023-12-04T00:20:52;30.52;27.00
65472;DHT22;52068;50.710;14.492;2023-12-04T00:23:17;30.83;26.72
65472;DHT22;52068;50.710;14.492;2023-12-04T00:25:43;31.07;26.26
65472;DHT22;52068;50.710;14.492;2023-12-04T00:28:08;31.34;25.98
65472;DHT22;52068;50.710;14.492;2023-12-04T00:30:34;31.55;25.81
65472;DHT22;52068;50.710;14.492;2023-12-04T00:32:59;31.66;25.63
65472;DHT22;52068;50.710;14.492;2023-12-04T00:35:25;31.73;25.51
65472;DHT22;52068;50.710;14.492;2023-12-04T00:37:50;31.73;25.48
65472;DHT22;52068;50.710;14.492;2023-12-04T00:40:15;31.65;25.49
65472;DHT22;52068;50.710;14.492;2023-12-04T00:42:41;31.52;25.73
65472;DHT22;52068;50.710;14.492;2023-12-04T00:45:07;31.35;25.83
65472;DHT22;52068;50.710;14.492;2023-12-04T00:47:32;31.07;26.21
65472;DHT22;52068;50.710;14.492;2023-12-04T00:49:58;30.77;26.51
65472;DHT22;52068;50.710;14.492;2023-12-04T00:52:23;30.46;26.88
65472;DHT22;52068;50.710;14.492;2023-12-04T00:54:48;30.12;27.34
65472;DHT22;52068;50.710;14.492;2023-12-04T00:57:14;29.75;27.70
65472;DHT22;52068;50.710;14.492;2023-12-04T00:59:39;29.35;28.17
65472;DHT22;52068;50.710;14.492;2023-12-04T01:02:06;29.00;28.52
65472;DHT22;52068;50.710;14.492;2023-12-04T01:04:32;28.66;28.99
65472;DHT22;52068;50.710;14.492;2023-12-04T01:06:57;28.38;29.15
65472;DHT22;52068;50.710;14.492;2023-12-04T01:09:22;28.01;29.70
65472;DHT22;52068;50.710;14.492;2023-12-04T01:11:53;27.76;30.03
65472;DHT22;52068;50.710;14.492;2023-12-04T01:14:19;27.70;29.91
65472;DHT22;52068;50.710;14.492;2023-12-04T01:16:45;27.51;30.57
65472;DHT22;52068;50.710;14.492;2023-12-04T01:19:10;27.35;30.68
65472;DHT22;52068;50.710;14.492;2023-12-04T01:21:36;27.40;30.51
65472;DHT22;52068;50.710;14.492;2023-12-04T01:24:01;27.42;30.63
65472;DHT22;52068;50.710;14.492;2023-12-04T01:26:27;27.42;30.73
65472;DHT22;52068;50.710;14.492;2023-12-04T01:28:52;27.60;30.53
65472;DHT22;52068;50.710;14.492;2023-12-04T01:31:18;27.91;30.29
65472;DHT22;52068;50.710;14.492;2023-12-04T01:33:43;28.21;29.61
65472;DHT22;52068;50.710;14.492;2023-12-04T01:36:09;28.51;29.29
65472;DHT22;52068;50.710;14.492;2023-12-04T01:38:34;28.80;28.83
65472;DHT22;52068;50.710;14.492;2023-12-04T01:40:59;29.06;28.53
65472;DHT22;52068;50.710;14.492;2023-12-04T01:43:25;29.37;28.17
65472;DHT22;52068;50.710;14.492;2023-12-04T01:45:51;29.58;27.89
65472;DHT22;52068;50.710;14.492;2023-12-04T01:48:17;29.84;27.66
65472;DHT22;52068;50.710;14.492;2023-12-04T01:50:43;30.05;27.36
65472;DHT22;52068;50.710;14.492;2023-12-04T01:53:09;30.32;26.96
65472;DHT22;52068;50.710;14.492;2023-12-04T01:55:37;30.53;26.82
65472;DHT22;52068;50.710;14.492;2023-12-04T01:58:03;30.74;26.40
65472;DHT22;52068;50.710;14.492;2023-12-04T02:00:30;30.92;26.23
65472;DHT22;52068;50.710;14.492;2023-12-04T02:02:57;31.05;26.05
65472;DHT22;52068;50.710;14.492;2023-12-04T02:05:23;31.18;25.97
65472;DHT22;52068;50.710;14.492;2023-12-04T02:07:49;31.24;25.90
65472;DHT22;52068;50.710;14.492;2023-12-04T02:10:15;31.24;25.88
65472;DHT22;52068;50.710;14.492;2023-12-04T02:12:41;31.22;25.91
65472;DHT22;52068;50.710;14.492;2023-12-04T02:15:06;31.14;25.97
65472;DHT22;52068;50.710;14.492;2023-12-04T02:17:32;31.02;26.08
65472;DHT22;52068;50.710;14.492;2023-12-04T02:19:58;30.87;26.21
65472;DHT22;52068;50.710;14.492;2023-12-04T02:22:24;30.66;26.43
65472;DHT22;52068;50.710;14.492;2023-12-04T02:24:49;30.41;26.75
65472;DHT22;52068;50.710;14.492;2023-12-04T02:27:18;30.19;26.94
65472;DHT22;52068;50.710;14.492;2023-12-04T02:29:53;29.98;27.20
65472;DHT22;52068;50.710;14.492;2023-12-04T02:32:21;29.71;27.53
65472;DHT22;52068;50.710;14.492;2023-12-04T02:34:49;29.43;27.88
65472;DHT22;52068;50.710;14.492;2023-12-04T02:37:16;29.13;28.16
65472;DHT22;52068;50.710;14.492;2023-12-04T02:39:42;28.96;28.45
65472;DHT22;52068;50.710;14.492;2023-12-04T02:42:08;28.76;28.73
65472;DHT22;52068;50.710;14.492;2023-12-04T02:44:34;28.57;28.92
65472;DHT22;52068;50.710;14.492;2023-12-04T02:46:59;28.41;29.18
65472;DHT22;52068;50.710;14.492;2023-12-04T02:49:25;28.32;29.21
65472;DHT22;52068;50.710;14.492;2023-12-04T02:51:50;28.22;29.29
65472;DHT22;52068;50.710;14.492;2023-12-04T02:54:15;28.11;29.59
65472;DHT22;52068;50.710;14.492;2023-12-04T02:56:41;27.94;29.49
65472;DHT22;52068;50.710;14.492;2023-12-04T02:59:06;27.94;29.84
65472;DHT22;52068;50.710;14.492;2023-12-04T03:01:32;27.85;29.80
65472;DHT22;52068;50.710;14.492;2023-12-04T03:03:57;27.83;29.85
65472;DHT22;52068;50.710;14.492;2023-12-04T03:06:22;27.81;29.84
65472;DHT22;52068;50.710;14.492;2023-12-04T03:08:48;27.64;30.03
65472;DHT22;52068;50.710;14.492;2023-12-04T03:11:13;27.64;29.91
65472;DHT22;52068;50.710;14.492;2023-12-04T03:13:39;27.57;30.07
65472;DHT22;52068;50.710;14.492;2023-12-04T03:16:04;27.66;30.04
65472;DHT22;52068;50.710;14.492;2023-12-04T03:18:30;27.71;30.00
65472;DHT22;52068;50.710;14.492;2023-12-04T03:20:55;27.77;29.95
65472;DHT22;52068;50.710;14.492;2023-12-04T03:23:20;27.84;29.82
65472;DHT22;52068;50.710;14.492;2023-12-04T03:25:46;27.97;29.63
65472;DHT22;52068;50.710;14.492;2023-12-04T03:28:11;28.11;29.47
65472;DHT22;52068;50.710;14.492;2023-12-04T03:30:38;28.21;29.32
65472;DHT22;52068;50.710;14.492;2023-12-04T03:33:04;28.35;29.07
65472;DHT22;52068;50.710;14.492;2023-12-04T03:35:29;28.44;29.06
65472;DHT22;52068;50.710;14.492;2023-12-04T03:37:54;28.56;28.78
65472;DHT22;52068;50.710;14.492;2023-12-04T03:40:20;28.63;28.72
65472;DHT22;52068;50.710;14.492;2023-12-04T03:42:45;28.69;28.59
65472;DHT22;52068;50.710;14.492;2023-12-04T03:45:11;28.75;28.57
65472;DHT22;52068;50.710;14.492;2023-12-04T03:47:36;28.79;28.48
65472;DHT22;52068;50.710;14.492;2023-12-04T03:50:02;28.83;28.47
65472;DHT22;52068;50.710;14.492;2023-12-04T03:52:27;28.90;28.35
65472;DHT22;52068;50.710;14.492;2023-12-04T03:54:52;28.97;28.04
65472;DHT22;52068;50.710;14.492;2023-12-04T03:57:18;28.99;28.23
65472;DHT22;52068;50.710;14.492;2023-12-04T03:59:44;29.00;28.09
65472;DHT22;52068;50.710;14.492;2023-12-04T04:02:10;28.93;28.10
65472;DHT22;52068;50.710;14.492;2023-12-04T04:04:35;28.93;28.06
65472;DHT22;52068;50.710;14.492;2023-12-04T04:07:00;28.89;28.26
65472;DHT22;52068;50.710;14.492;2023-12-04T04:09:26;28.86;28.50
65472;DHT22;52068;50.710;14.492;2023-12-04T04:11:51;28.84;28.64
65472;DHT22;52068;50.710;14.492;2023-12-04T04:14:17;28.94;28.25
65472;DHT22;52068;50.710;14.492;2023-12-04T04:16:42;29.03;28.31
65472;DHT22;52068;50.710;14.492;2023-12-04T04:19:07;29.06;28.25
65472;DHT22;52068;50.710;14.492;2023-12-04T04:21:33;29.07;28.19
65472;DHT22;52068;50.710;14.492;2023-12-04T04:23:59;29.13;28.04
65472;DHT22;52068;50.710;14.492;2023-12-04T04:26:24;29.14;28.12
65472;DHT22;52068;50.710;14.492;2023-12-04T04:28:50;29.11;28.15
65472;DHT22;52068;50.710;14.492;2023-12-04T04:31:15;29.13;28.17
65472;DHT22;52068;50.710;14.492;2023-12-04T04:33:40;29.21;28.02
65472;DHT22;52068;50.710;14.492;2023-12-04T04:36:09;29.21;27.92
65472;DHT22;52068;50.710;14.492;2023-12-04T04:38:34;29.23;27.88
65472;DHT22;52068;50.710;14.492;2023-12-04T04:41:00;29.20;27.80
65472;DHT22;52068;50.710;14.492;2023-12-04T04:43:25;29.11;27.81
65472;DHT22;52068;50.710;14.492;2023-12-04T04:45:50;29.08;28.04
65472;DHT22;52068;50.710;14.492;2023-12-04T04:48:16;29.11;27.87
65472;DHT22;52068;50.710;14.492;2023-12-04T04:50:41;29.11;27.66
65472;DHT22;52068;50.710;14.492;2023-12-04T04:53:07;29.13;27.81
65472;DHT22;52068;50.710;14.492;2023-12-04T04:55:32;29.16;27.75
65472;DHT22;52068;50.710;14.492;2023-12-04T04:57:58;29.13;27.78
65472;DHT22;52068;50.710;14.492;2023-12-04T05:00:23;29.14;27.70
65472;DHT22;52068;50.710;14.492;2023-12-04T05:02:48;29.14;27.74
65472;DHT22;52068;50.710;14.492;2023-12-04T05:05:14;29.16;27.74
65472;DHT22;52068;50.710;14.492;2023-12-04T05:07:39;29.14;27.54
65472;DHT22;52068;50.710;14.492;2023-12-04T05:10:05;29.20;27.52
65472;DHT22;52068;50.710;14.492;2023-12-04T05:12:30;29.20;27.46
65472;DHT22;52068;50.710;14.492;2023-12-04T05:14:56;29.18;27.56
65472;DHT22;52068;50.710;14.492;2023-12-04T05:17:21;29.21;27.45
65472;DHT22;52068;50.710;14.492;2023-12-04T05:19:46;29.23;27.45
65472;DHT22;52068;50.710;14.492;2023-12-04T05:22:12;29.31;27.39
65472;DHT22;52068;50.710;14.492;2023-12-04T05:24:37;29.31;27.35
65472;DHT22;52068;50.710;14.492;2023-12-04T05:27:03;29.30;27.30
65472;DHT22;52068;50.710;14.492;2023-12-04T05:29:28;29.35;27.21
65472;DHT22;52068;50.710;14.492;2023-12-04T05:31:53;29.30;27.26
65472;DHT22;52068;50.710;14.492;2023-12-04T05:34:19;29.30;27.30
65472;DHT22;52068;50.710;14.492;2023-12-04T05:36:44;29.28;27.35
65472;DHT22;52068;50.710;14.492;2023-12-04T05:39:10;29.28;27.38
65472;DHT22;52068;50.710;14.492;2023-12-04T05:41:35;29.35;27.32
65472;DHT22;52068;50.710;14.492;2023-12-04T05:44:01;29.38;27.23
65472;DHT22;52068;50.710;14.492;2023-12-04T05:46:26;29.39;27.23
65472;DHT22;52068;50.710;14.492;2023-12-04T05:48:51;29.41;27.20
65472;DHT22;52068;50.710;14.492;2023-12-04T05:51:17;29.41;27.25
65472;DHT22;52068;50.710;14.492;2023-12-04T05:53:42;29.43;27.34
65472;DHT22;52068;50.710;14.492;2023-12-04T05:56:08;29.44;27.27
65472;DHT22;52068;50.710;14.492;2023-12-04T05:58:34;29.54;27.18
65472;DHT22;52068;50.710;14.492;2023-12-04T06:01:00;29.57;27.09
65472;DHT22;52068;50.710;14.492;2023-12-04T06:03:25;29.50;27.18
65472;DHT22;52068;50.710;14.492;2023-12-04T06:05:50;29.50;27.41
65472;DHT22;52068;50.710;14.492;2023-12-04T06:08:16;29.50;27.35
65472;DHT22;52068;50.710;14.492;2023-12-04T06:10:41;29.55;27.29
65472;DHT22;52068;50.710;14.492;2023-12-04T06:13:07;29.54;27.29
65472;DHT22;52068;50.710;14.492;2023-12-04T06:15:32;29.58;27.25
65472;DHT22;52068;50.710;14.492;2023-12-04T06:17:58;29.55;27.29
65472;DHT22;52068;50.710;14.492;2023-12-04T06:20:23;29.58;27.31
65472;DHT22;52068;50.710;14.492;2023-12-04T06:22:49;29.61;27.17
65472;DHT22;52068;50.710;14.492;2023-12-04T06:25:15;29.57;27.26
65472;DHT22;52068;50.710;14.492;2023-12-04T06:27:41;29.53;27.27
65472;DHT22;52068;50.710;14.492;2023-12-04T06:30:07;29.47;27.42
65472;DHT22;52068;50.710;14.492;2023-12-04T06:32:32;29.38;27.54
65472;DHT22;52068;50.710;14.492;2023-12-04T06:34:58;29.43;27.42
65472;DHT22;52068;50.710;14.492;2023-12-04T06:37:24;29.48;27.47
65472;DHT22;52068;50.710;14.492;2023-12-04T06:39:52;29.61;27.25
65472;DHT22;52068;50.710;14.492;2023-12-04T06:42:18;29.85;26.99
65472;DHT22;52068;50.710;14.492;2023-12-04T06:44:44;30.02;26.68
65472;DHT22;52068;50.710;14.492;2023-12-04T06:47:11;30.26;26.41
65472;DHT22;52068;50.710;14.492;2023-12-04T06:49:37;30.43;26.19
65472;DHT22;52068;50.710;14.492;2023-12-04T06:52:04;30.54;26.36
65472;DHT22;52068;50.710;14.492;2023-12-04T06:54:30;30.64;26.24
65472;DHT22;52068;50.710;14.492;2023-12-04T06:56:56;30.77;25.90
65472;DHT22;52068;50.710;14.492;2023-12-04T06:59:21;30.84;25.63
65472;DHT22;52068;50.710;14.492;2023-12-04T07:01:47;30.94;25.48
65472;DHT22;52068;50.710;14.492;2023-12-04T07:04:12;31.05;25.30
65472;DHT22;52068;50.710;14.492;2023-12-04T07:06:39;31.12;25.15
65472;DHT22;52068;50.710;14.492;2023-12-04T07:09:05;31.14;25.08
65472;DHT22;52068;50.710;14.492;2023-12-04T07:11:32;31.21;24.94
65472;DHT22;52068;50.710;14.492;2023-12-04T07:13:58;31.25;24.89
65472;DHT22;52068;50.710;14.492;2023-12-04T07:16:23;31.31;24.82
65472;DHT22;52068;50.710;14.492;2023-12-04T07:18:49;31.34;24.72
65472;DHT22;52068;50.710;14.492;2023-12-04T07:21:14;31.35;24.68
65472;DHT22;52068;50.710;14.492;2023-12-04T07:23:39;31.29;24.68
65472;DHT22;52068;50.710;14.492;2023-12-04T07:26:05;31.22;24.68
65472;DHT22;52068;50.710;14.492;2023-12-04T07:28:32;31.21;24.72
65472;DHT22;52068;50.710;14.492;2023-12-04T07:30:57;31.15;24.74
65472;DHT22;52068;50.710;14.492;2023-12-04T07:33:23;31.11;24.81
65472;DHT22;52068;50.710;14.492;2023-12-04T07:35:48;31.02;24.97
65472;DHT22;52068;50.710;14.492;2023-12-04T07:38:14;30.97;24.95
65472;DHT22;52068;50.710;14.492;2023-12-04T07:40:39;30.80;25.05
65472;DHT22;52068;50.710;14.492;2023-12-04T07:43:05;30.64;25.32
65472;DHT22;52068;50.710;14.492;2023-12-04T07:45:30;30.44;25.52
65472;DHT22;52068;50.710;14.492;2023-12-04T07:47:56;30.26;25.82
65472;DHT22;52068;50.710;14.492;2023-12-04T07:50:21;30.15;25.90
65472;DHT22;52068;50.710;14.492;2023-12-04T07:52:47;30.02;26.14
65472;DHT22;52068;50.710;14.492;2023-12-04T07:55:12;29.84;26.34
65472;DHT22;52068;50.710;14.492;2023-12-04T07:57:37;29.71;26.64
65472;DHT22;52068;50.710;14.492;2023-12-04T08:00:03;29.65;26.74
65472;DHT22;52068;50.710;14.492;2023-12-04T08:02:29;29.64;26.73
65472;DHT22;52068;50.710;14.492;2023-12-04T08:04:54;29.54;26.74
65472;DHT22;52068;50.710;14.492;2023-12-04T08:07:20;29.39;27.02
65472;DHT22;52068;50.710;14.492;2023-12-04T08:09:45;29.28;27.22
65472;DHT22;52068;50.710;14.492;2023-12-04T08:12:11;29.18;27.23
65472;DHT22;52068;50.710;14.492;2023-12-04T08:14:36;29.10;27.56
65472;DHT22;52068;50.710;14.492;2023-12-04T08:17:01;28.97;27.79
65472;DHT22;52068;50.710;14.492;2023-12-04T08:19:27;28.99;27.80
65472;DHT22;52068;50.710;14.492;2023-12-04T08:21:52;28.97;27.88
65472;DHT22;52068;50.710;14.492;2023-12-04T08:24:18;29.07;27.73
65472;DHT22;52068;50.710;14.492;2023-12-04T08:26:46;29.16;27.77
65472;DHT22;52068;50.710;14.492;2023-12-04T08:29:12;29.34;27.47
65472;DHT22;52068;50.710;14.492;2023-12-04T08:31:37;29.54;27.16
65472;DHT22;52068;50.710;14.492;2023-12-04T08:34:02;29.76;27.26
65472;DHT22;52068;50.710;14.492;2023-12-04T08:36:28;30.05;26.78
65472;DHT22;52068;50.710;14.492;2023-12-04T08:38:53;30.33;26.34
65472;DHT22;52068;50.710;14.492;2023-12-04T08:41:19;30.56;26.05
65472;DHT22;52068;50.710;14.492;2023-12-04T08:43:45;30.70;26.12
65472;DHT22;52068;50.710;14.492;2023-12-04T08:46:14;30.84;25.81
65472;DHT22;52068;50.710;14.492;2023-12-04T08:48:40;31.01;25.59
65472;DHT22;52068;50.710;14.492;2023-12-04T08:51:06;31.12;25.54
65472;DHT22;52068;50.710;14.492;2023-12-04T08:53:33;31.22;25.48
65472;DHT22;52068;50.710;14.492;2023-12-04T08:55:59;31.25;25.34
65472;DHT22;52068;50.710;14.492;2023-12-04T08:58:24;31.29;25.33
65472;DHT22;52068;50.710;14.492;2023-12-04T09:00:50;31.32;25.29
65472;DHT22;52068;50.710;14.492;2023-12-04T09:03:15;31.32;25.46
65472;DHT22;52068;50.710;14.492;2023-12-04T09:05:41;31.31;25.25
65472;DHT22;52068;50.710;14.492;2023-12-04T09:08:07;31.41;25.23
65472;DHT22;52068;50.710;14.492;2023-12-04T09:10:33;31.52;25.13
65472;DHT22;52068;50.710;14.492;2023-12-04T09:12:58;31.67;24.97
65472;DHT22;52068;50.710;14.492;2023-12-04T09:15:24;31.76;24.85
65472;DHT22;52068;50.710;14.492;2023-12-04T09:17:49;31.86;24.76
65472;DHT22;52068;50.710;14.492;2023-12-04T09:20:14;31.93;24.78
65472;DHT22;52068;50.710;14.492;2023-12-04T09:22:40;32.00;24.71
65472;DHT22;52068;50.710;14.492;2023-12-04T09:25:06;32.05;24.70
65472;DHT22;52068;50.710;14.492;2023-12-04T09:27:31;32.12;24.70
65472;DHT22;52068;50.710;14.492;2023-12-04T09:29:57;32.10;24.67
65472;DHT22;52068;50.710;14.492;2023-12-04T09:32:22;32.09;24.75
65472;DHT22;52068;50.710;14.492;2023-12-04T09:34:48;32.03;24.78
65472;DHT22;52068;50.710;14.492;2023-12-04T09:37:13;31.94;24.91
65472;DHT22;52068;50.710;14.492;2023-12-04T09:39:39;31.80;25.01
65472;DHT22;52068;50.710;14.492;2023-12-04T09:42:05;31.66;25.23
65472;DHT22;52068;50.710;14.492;2023-12-04T09:44:30;31.43;25.45
65472;DHT22;52068;50.710;14.492;2023-12-04T09:46:58;31.28;25.70
65472;DHT22;52068;50.710;14.492;2023-12-04T09:49:26;31.02;25.92
65472;DHT22;52068;50.710;14.492;2023-12-04T09:51:54;30.78;26.37
65472;DHT22;52068;50.710;14.492;2023-12-04T09:54:20;30.60;26.78
65472;DHT22;52068;50.710;14.492;2023-12-04T09:56:46;30.40;26.87
65472;DHT22;52068;50.710;14.492;2023-12-04T09:59:13;30.29;26.89
65472;DHT22;52068;50.710;14.492;2023-12-04T10:01:40;30.17;26.98
65472;DHT22;52068;50.710;14.492;2023-12-04T10:04:06;30.05;27.06
65472;DHT22;52068;50.710;14.492;2023-12-04T10:06:31;29.90;27.15
65472;DHT22;52068;50.710;14.492;2023-12-04T10:08:57;29.81;27.17
65472;DHT22;52068;50.710;14.492;2023-12-04T10:11:24;29.66;27.34
65472;DHT22;52068;50.710;14.492;2023-12-04T10:13:50;29.55;27.37
65472;DHT22;52068;50.710;14.492;2023-12-04T10:16:31;29.43;27.83
65472;DHT22;52068;50.710;14.492;2023-12-04T10:18:57;29.37;27.62
65472;DHT22;52068;50.710;14.492;2023-12-04T10:21:22;29.27;27.84
65472;DHT22;52068;50.710;14.492;2023-12-04T10:23:48;29.26;28.03
65472;DHT22;52068;50.710;14.492;2023-12-04T10:26:16;29.20;28.02
65472;DHT22;52068;50.710;14.492;2023-12-04T10:28:58;29.28;27.98
65472;DHT22;52068;50.710;14.492;2023-12-04T10:31:24;29.31;27.86
65472;DHT22;52068;50.710;14.492;2023-12-04T10:33:49;29.37;27.85
65472;DHT22;52068;50.710;14.492;2023-12-04T10:36:15;29.35;27.89
65472;DHT22;52068;50.710;14.492;2023-12-04T10:38:40;29.44;27.84
65472;DHT22;52068;50.710;14.492;2023-12-04T10:41:14;29.51;27.79
65472;DHT22;52068;50.710;14.492;2023-12-04T10:43:47;29.55;27.86
65472;DHT22;52068;50.710;14.492;2023-12-04T10:46:15;29.55;27.92
65472;DHT22;52068;50.710;14.492;2023-12-04T10:48:47;29.66;27.76
65472;DHT22;52068;50.710;14.492;2023-12-04T10:51:13;29.71;27.69
65472;DHT22;52068;50.710;14.492;2023-12-04T10:53:38;29.69;27.64
65472;DHT22;52068;50.710;14.492;2023-12-04T10:56:09;29.76;27.63
65472;DHT22;52068;50.710;14.492;2023-12-04T10:58:36;29.74;27.58
65472;DHT22;52068;50.710;14.492;2023-12-04T11:01:06;29.72;27.64
65472;DHT22;52068;50.710;14.492;2023-12-04T11:03:43;29.76;27.58
65472;DHT22;52068;50.710;14.492;2023-12-04T11:06:10;29.81;27.55
65472;DHT22;52068;50.710;14.492;2023-12-04T11:08:39;29.82;27.48
65472;DHT22;52068;50.710;14.492;2023-12-04T11:11:12;29.88;27.52
65472;DHT22;52068;50.710;14.492;2023-12-04T11:13:41;29.86;27.60
65472;DHT22;52068;50.710;14.492;2023-12-04T11:16:34;29.82;27.68
65472;DHT22;52068;50.710;14.492;2023-12-04T11:19:10;29.84;27.66
65472;DHT22;52068;50.710;14.492;2023-12-04T11:21:39;29.79;27.65
65472;DHT22;52068;50.710;14.492;2023-12-04T11:24:05;29.79;27.70
65472;DHT22;52068;50.710;14.492;2023-12-04T11:26:32;29.78;27.67
65472;DHT22;52068;50.710;14.492;2023-12-04T11:28:58;29.79;27.63
65472;DHT22;52068;50.710;14.492;2023-12-04T11:31:25;29.74;27.64
65472;DHT22;52068;50.710;14.492;2023-12-04T11:33:50;29.71;27.76
65472;DHT22;52068;50.710;14.492;2023-12-04T11:36:16;29.68;27.78
65472;DHT22;52068;50.710;14.492;2023-12-04T11:38:46;29.71;27.74
65472;DHT22;52068;50.710;14.492;2023-12-04T11:41:22;29.69;27.76
65472;DHT22;52068;50.710;14.492;2023-12-04T11:43:48;29.69;27.75
65472;DHT22;52068;50.710;14.492;2023-12-04T11:46:19;29.72;27.69
65472;DHT22;52068;50.710;14.492;2023-12-04T11:48:49;29.69;27.82
65472;DHT22;52068;50.710;14.492;2023-12-04T11:54:04;29.72;27.79
65472;DHT22;52068;50.710;14.492;2023-12-04T11:56:30;29.79;27.63
65472;DHT22;52068;50.710;14.492;2023-12-04T11:59:03;29.84;27.60
65472;DHT22;52068;50.710;14.492;2023-12-04T12:01:32;29.90;27.53
65472;DHT22;52068;50.710;14.492;2023-12-04T12:03:58;30.02;27.43
65472;DHT22;52068;50.710;14.492;2023-12-04T12:06:24;30.08;27.34
65472;DHT22;52068;50.710;14.492;2023-12-04T12:08:50;30.16;27.21
65472;DHT22;52068;50.710;14.492;2023-12-04T12:11:16;30.15;27.07
65472;DHT22;52068;50.710;14.492;2023-12-04T12:13:41;30.19;27.07
65472;DHT22;52068;50.710;14.492;2023-12-04T12:16:07;30.27;26.97
65472;DHT22;52068;50.710;14.492;2023-12-04T12:18:35;30.27;26.96
65472;DHT22;52068;50.710;14.492;2023-12-04T12:21:01;30.35;26.64
65472;DHT22;52068;50.710;14.492;2023-12-04T12:23:27;30.44;26.15
65472;DHT22;52068;50.710;14.492;2023-12-04T12:25:52;30.56;25.82
65472;DHT22;52068;50.710;14.492;2023-12-04T12:28:18;30.66;25.77
65472;DHT22;52068;50.710;14.492;2023-12-04T12:30:44;30.73;26.05
65472;DHT22;52068;50.710;14.492;2023-12-04T12:33:13;30.77;25.96
65472;DHT22;52068;50.710;14.492;2023-12-04T12:35:39;30.78;25.99
65472;DHT22;52068;50.710;14.492;2023-12-04T12:38:04;30.83;25.82
65472;DHT22;52068;50.710;14.492;2023-12-04T12:40:30;30.83;25.82
65472;DHT22;52068;50.710;14.492;2023-12-04T12:43:09;30.86;25.72
65472;DHT22;52068;50.710;14.492;2023-12-04T12:45:44;30.88;25.72
65472;DHT22;52068;50.710;14.492;2023-12-04T12:48:16;30.91;25.58
65472;DHT22;52068;50.710;14.492;2023-12-04T12:50:48;30.97;25.59
65472;DHT22;52068;50.710;14.492;2023-12-04T12:53:14;30.97;25.53
65472;DHT22;52068;50.710;14.492;2023-12-04T12:55:42;30.98;25.51
65472;DHT22;52068;50.710;14.492;2023-12-04T12:58:09;30.98;25.53
65472;DHT22;52068;50.710;14.492;2023-12-04T13:00:34;31.02;25.51
65472;DHT22;52068;50.710;14.492;2023-12-04T13:03:01;30.95;25.59
65472;DHT22;52068;50.710;14.492;2023-12-04T13:05:27;30.90;25.63
65472;DHT22;52068;50.710;14.492;2023-12-04T13:07:52;30.86;25.66
65472;DHT22;52068;50.710;14.492;2023-12-04T13:10:17;30.80;25.73
65472;DHT22;52068;50.710;14.492;2023-12-04T13:12:43;30.70;25.86
65472;DHT22;52068;50.710;14.492;2023-12-04T13:15:09;30.64;25.92
65472;DHT22;52068;50.710;14.492;2023-12-04T13:17:35;30.57;26.14
65472;DHT22;52068;50.710;14.492;2023-12-04T13:20:01;30.46;26.28
65472;DHT22;52068;50.710;14.492;2023-12-04T13:22:26;30.35;26.42
65472;DHT22;52068;50.710;14.492;2023-12-04T13:24:52;30.29;26.46
65472;DHT22;52068;50.710;14.492;2023-12-04T13:27:18;30.20;26.58
65472;DHT22;52068;50.710;14.492;2023-12-04T13:29:43;30.15;26.65
65472;DHT22;52068;50.710;14.492;2023-12-04T13:32:09;30.08;26.77
65472;DHT22;52068;50.710;14.492;2023-12-04T13:34:34;30.01;26.88
65472;DHT22;52068;50.710;14.492;2023-12-04T13:36:59;29.98;26.97
65472;DHT22;52068;50.710;14.492;2023-12-04T13:39:25;29.92;27.02
65472;DHT22;52068;50.710;14.492;2023-12-04T13:42:13;29.86;27.13
65472;DHT22;52068;50.710;14.492;2023-12-04T13:44:57;29.78;27.26
65472;DHT22;52068;50.710;14.492;2023-12-04T13:47:22;29.75;27.21
65472;DHT22;52068;50.710;14.492;2023-12-04T13:49:48;29.78;27.29
65472;DHT22;52068;50.710;14.492;2023-12-04T13:52:14;29.86;27.17
65472;DHT22;52068;50.710;14.492;2023-12-04T13:54:39;29.96;27.06
65472;DHT22;52068;50.710;14.492;2023-12-04T13:57:13;30.06;27.06
65472;DHT22;52068;50.710;14.492;2023-12-04T13:59:54;30.23;26.84
65472;DHT22;52068;50.710;14.492;2023-12-04T14:02:22;30.40;26.58
65472;DHT22;52068;50.710;14.492;2023-12-04T14:04:47;30.57;26.38
65472;DHT22;52068;50.710;14.492;2023-12-04T14:07:14;30.73;26.19
65472;DHT22;52068;50.710;14.492;2023-12-04T14:09:39;30.84;26.07
65472;DHT22;52068;50.710;14.492;2023-12-04T14:12:05;30.98;25.92
65472;DHT22;52068;50.710;14.492;2023-12-04T14:14:31;31.07;25.78
65472;DHT22;52068;50.710;14.492;2023-12-04T14:16:58;31.17;25.66
65472;DHT22;52068;50.710;14.492;2023-12-04T14:19:24;31.19;25.57
65472;DHT22;52068;50.710;14.492;2023-12-04T14:21:49;31.26;25.54
65472;DHT22;52068;50.710;14.492;2023-12-04T14:24:14;31.32;25.44
65472;DHT22;52068;50.710;14.492;2023-12-04T14:26:40;31.34;25.41
65472;DHT22;52068;50.710;14.492;2023-12-04T14:29:05;31.36;25.41
65472;DHT22;52068;50.710;14.492;2023-12-04T14:31:33;31.39;25.41
65472;DHT22;52068;50.710;14.492;2023-12-04T14:33:59;31.36;25.49
65472;DHT22;52068;50.710;14.492;2023-12-04T14:36:24;31.36;25.77
65472;DHT22;52068;50.710;14.492;2023-12-04T14:38:52;31.38;25.83
65472;DHT22;52068;50.710;14.492;2023-12-04T14:41:17;31.36;25.81
65472;DHT22;52068;50.710;14.492;2023-12-04T14:43:42;31.38;25.75
65472;DHT22;52068;50.710;14.492;2023-12-04T14:46:08;31.36;25.77
65472;DHT22;52068;50.710;14.492;2023-12-04T14:48:37;31.35;25.75
65472;DHT22;52068;50.710;14.492;2023-12-04T14:51:02;31.29;25.78
65472;DHT22;52068;50.710;14.492;2023-12-04T14:53:29;31.31;25.70
65472;DHT22;52068;50.710;14.492;2023-12-04T14:56:00;31.36;25.74
65472;DHT22;52068;50.710;14.492;2023-12-04T14:58:45;31.36;25.70
65472;DHT22;52068;50.710;14.492;2023-12-04T15:01:13;31.39;25.80
65472;DHT22;52068;50.710;14.492;2023-12-04T15:03:50;31.42;25.83
65472;DHT22;52068;50.710;14.492;2023-12-04T15:06:45;31.45;25.68
65472;DHT22;52068;50.710;14.492;2023-12-04T15:09:29;31.42;25.73
65472;DHT22;52068;50.710;14.492;2023-12-04T15:12:36;31.41;25.62
65472;DHT22;52068;50.710;14.492;2023-12-04T15:15:16;31.32;25.72